Time;durP1;ratioP1;P1;durP2;ratioP2;P2;SDS_P1;SDS_P2;PMS_P1;PMS_P2;Temp;Humidity;BMP_temperature;BMP_pressure;BME280_temperature;BME280_humidity;BME280_pressure;Samples;Min_cycle;Max_cycle;Signal;HPM_P1;HPM_P2
2023/09/28 00:01:22;;;;;;;9.45;4.05;;;;;;;23.67;59.82;101317.78;5033234;28;20034;-73
2023/09/28 00:03:48;;;;;;;8.32;4.20;;;;;;;23.60;60.04;101322.47;5032975;28;20049;-72
2023/09/28 00:06:16;;;;;;;6.70;4.47;;;;;;;23.63;60.30;101324.13;5033438;28;20037;-73
2023/09/28 00:08:42;;;;;;;6.38;4.07;;;;;;;23.63;60.43;101330.34;5032693;28;20047;-72
2023/09/28 00:11:07;;;;;;;7.28;4.50;;;;;;;23.72;60.10;101327.38;5031392;28;20112;-73
2023/09/28 00:13:32;;;;;;;9.68;4.20;;;;;;;23.72;60.27;101326.50;5032487;28;20775;-73
2023/09/28 00:16:07;;;;;;;7.57;4.13;;;;;;;23.83;59.52;101319.00;5033312;28;20033;-73
2023/09/28 00:18:33;;;;;;;8.93;4.28;;;;;;;23.56;60.96;101330.56;5032364;28;20037;-73
2023/09/28 00:20:58;;;;;;;8.95;4.30;;;;;;;23.75;60.64;101334.38;5032755;28;20506;-73
2023/09/28 00:23:24;;;;;;;9.45;4.65;;;;;;;23.80;60.06;101340.41;5032760;28;20030;-72
2023/09/28 00:25:52;;;;;;;12.10;4.97;;;;;;;23.58;61.43;101339.41;5033036;28;20065;-72
2023/09/28 00:28:18;;;;;;;6.88;4.43;;;;;;;23.74;60.63;101348.59;5032495;28;20060;-73
2023/09/28 00:30:44;;;;;;;7.65;4.53;;;;;;;23.62;60.81;101355.22;5032152;28;20052;-73
2023/09/28 00:33:09;;;;;;;8.18;4.70;;;;;;;23.56;61.17;101354.53;5032465;28;20711;-72
2023/09/28 00:35:41;;;;;;;8.73;4.65;;;;;;;23.37;62.40;101348.91;5032475;28;20037;-72
2023/09/28 00:38:07;;;;;;;8.88;4.60;;;;;;;23.39;62.32;101360.38;5032875;28;20128;-72
2023/09/28 00:40:32;;;;;;;12.48;4.90;;;;;;;23.35;63.00;101364.06;5032184;28;20052;-72
2023/09/28 00:42:59;;;;;;;10.85;4.45;;;;;;;23.39;62.21;101363.03;5032569;28;20034;-72
2023/09/28 00:45:26;;;;;;;7.93;4.40;;;;;;;23.32;62.60;101359.69;5032239;28;20084;-72
2023/09/28 00:47:54;;;;;;;10.68;4.85;;;;;;;23.27;63.10;101363.41;5032801;28;20033;-73
2023/09/28 00:50:28;;;;;;;7.97;4.85;;;;;;;23.37;62.82;101371.06;5032886;28;20035;-72
2023/09/28 00:52:58;;;;;;;8.23;4.57;;;;;;;23.47;62.31;101366.38;5032363;28;20094;-73
2023/09/28 00:55:24;;;;;;;7.68;4.40;;;;;;;23.45;62.82;101360.19;5032467;28;20036;-73
2023/09/28 00:57:50;;;;;;;8.20;5.10;;;;;;;23.22;63.88;101363.56;5032725;28;20029;-72
2023/09/28 01:00:29;;;;;;;7.80;4.50;;;;;;;23.30;63.62;101365.97;5032524;28;20033;-73
2023/09/28 01:02:57;;;;;;;8.18;4.50;;;;;;;23.30;62.90;101374.81;5032139;28;20125;-72
2023/09/28 01:05:33;;;;;;;7.72;4.90;;;;;;;22.95;65.58;101381.22;5032363;28;20025;-74
2023/09/28 01:08:24;;;;;;;9.15;5.03;;;;;;;23.14;64.98;101383.34;5032516;28;20033;-72
2023/09/28 01:10:50;;;;;;;8.48;4.90;;;;;;;23.14;64.69;101381.53;5031207;28;20056;-72
2023/09/28 01:13:23;;;;;;;9.30;4.93;;;;;;;23.22;64.78;101381.31;5031081;28;20490;-72
2023/09/28 01:15:49;;;;;;;12.98;4.88;;;;;;;23.16;65.50;101387.69;5031316;28;20120;-73
2023/09/28 01:18:24;;;;;;;8.55;4.38;;;;;;;23.07;65.51;101379.97;5031286;28;20033;-73
2023/09/28 01:20:54;;;;;;;9.75;4.80;;;;;;;23.03;65.69;101373.03;5030579;28;20442;-72
2023/09/28 01:23:26;;;;;;;8.80;4.40;;;;;;;23.02;66.06;101380.13;5031364;28;20025;-73
2023/09/28 01:25:52;;;;;;;10.90;4.50;;;;;;;22.90;66.37;101369.88;5030902;28;20040;-73
2023/09/28 01:28:17;;;;;;;8.25;3.88;;;;;;;22.82;66.85;101382.50;5031210;28;20029;-73
2023/09/28 01:30:43;;;;;;;8.40;4.22;;;;;;;22.90;66.17;101369.00;5030063;28;20106;-73
2023/09/28 01:33:17;;;;;;;8.30;3.90;;;;;;;22.86;65.98;101378.84;5029966;28;20053;-71
2023/09/28 01:35:51;;;;;;;8.07;4.05;;;;;;;22.97;65.35;101381.19;5029335;28;20025;-73
2023/09/28 01:38:31;;;;;;;6.78;3.92;;;;;;;22.94;65.64;101382.13;5031217;28;20037;-71
2023/09/28 01:40:57;;;;;;;7.57;3.72;;;;;;;22.89;65.60;101394.69;5030461;28;20037;-71
2023/09/28 01:43:22;;;;;;;7.78;3.95;;;;;;;22.74;66.52;101384.53;5030207;28;20029;-71
2023/09/28 01:45:51;;;;;;;5.65;3.30;;;;;;;22.74;66.34;101387.19;5030716;28;20033;-74
2023/09/28 01:48:22;;;;;;;9.00;3.78;;;;;;;22.71;66.77;101389.00;5030836;28;20495;-74
2023/09/28 01:50:51;;;;;;;8.45;3.30;;;;;;;22.58;66.94;101392.00;5030517;28;20061;-74
2023/09/28 01:53:16;;;;;;;6.80;3.20;;;;;;;22.62;66.86;101393.69;5030876;28;20033;-74
2023/09/28 01:55:46;;;;;;;7.10;3.13;;;;;;;22.67;66.44;101399.75;5029054;28;20060;-74
2023/09/28 01:58:18;;;;;;;7.57;3.20;;;;;;;22.58;66.64;101392.00;5030827;28;20045;-74
2023/09/28 02:00:46;;;;;;;9.63;3.00;;;;;;;22.45;66.57;101397.69;5029983;28;20555;-72
2023/09/28 02:03:11;;;;;;;7.10;2.85;;;;;;;22.32;66.64;101401.63;5030453;28;20670;-72
2023/09/28 02:05:37;;;;;;;5.15;2.53;;;;;;;22.45;65.97;101409.19;5030491;28;20040;-72
2023/09/28 02:08:05;;;;;;;9.40;2.70;;;;;;;22.42;65.41;101406.66;5030892;28;20041;-72
2023/09/28 02:10:37;;;;;;;8.02;2.70;;;;;;;22.42;64.91;101405.78;5030697;28;20505;-72
2023/09/28 02:13:05;;;;;;;9.75;2.80;;;;;;;22.67;63.72;101401.53;5032394;28;20116;-72
2023/09/28 02:15:34;;;;;;;6.90;2.90;;;;;;;22.67;63.52;101398.88;5030405;28;20037;-72
2023/09/28 02:18:11;;;;;;;5.90;2.45;;;;;;;22.57;63.43;101398.22;5030704;28;20450;-72
2023/09/28 02:20:37;;;;;;;9.27;2.67;;;;;;;22.34;64.34;101392.69;5029518;28;20057;-72
2023/09/28 02:23:09;;;;;;;8.48;2.60;;;;;;;22.37;63.17;101403.25;5028628;28;20456;-72
2023/09/28 02:25:37;;;;;;;8.13;2.67;;;;;;;22.26;62.36;101398.19;5027578;28;20128;-71
2023/09/28 02:28:09;;;;;;;8.45;2.28;;;;;;;22.26;62.08;101400.84;5030209;28;20033;-74
2023/09/28 02:30:34;;;;;;;8.30;2.40;;;;;;;22.13;61.41;101403.88;5029666;28;20048;-73
2023/09/28 02:33:06;;;;;;;11.18;2.42;;;;;;;22.07;61.60;101404.03;5030066;28;20029;-73
2023/09/28 02:35:31;;;;;;;11.88;2.30;;;;;;;22.17;60.22;101403.75;5029635;28;20415;-73
2023/09/28 02:37:57;;;;;;;9.88;2.35;;;;;;;21.96;60.81;101403.41;5030383;28;20033;-73
2023/09/28 02:40:23;;;;;;;13.48;2.67;;;;;;;21.96;60.36;101414.03;5029620;28;20045;-74
2023/09/28 02:42:49;;;;;;;11.95;2.33;;;;;;;22.10;59.03;101419.88;5029629;28;20033;-73
2023/09/28 02:45:15;;;;;;;13.90;2.42;;;;;;;21.84;60.56;101428.47;5029693;28;20048;-72
2023/09/28 02:47:43;;;;;;;11.13;1.92;;;;;;;21.80;60.24;101432.09;5029334;28;20034;-73
2023/09/28 02:50:09;;;;;;;10.77;2.13;;;;;;;21.82;60.53;101433.81;5029844;28;20041;-73
2023/09/28 02:52:37;;;;;;;17.00;2.22;;;;;;;21.60;60.91;101437.88;5029507;28;20125;-73
2023/09/28 02:55:05;;;;;;;15.20;2.50;;;;;;;21.75;60.97;101440.19;5030186;28;20033;-73
2023/09/28 02:57:30;;;;;;;17.65;3.08;;;;;;;21.71;61.57;101438.50;5029521;28;20112;-73
2023/09/28 02:59:56;;;;;;;15.63;2.65;;;;;;;21.67;61.99;101451.88;5029697;28;20456;-72
2023/09/28 03:02:22;;;;;;;16.88;2.60;;;;;;;21.74;61.73;101456.13;5029034;28;20034;-76
2023/09/28 03:04:54;;;;;;;14.27;2.60;;;;;;;21.58;62.70;101455.63;5029718;28;20036;-72
2023/09/28 03:07:22;;;;;;;17.17;2.58;;;;;;;21.56;63.54;101460.09;5029856;28;20044;-73
2023/09/28 03:09:47;;;;;;;15.98;3.20;;;;;;;21.53;63.67;101478.72;5029570;28;20482;-73
2023/09/28 03:12:16;;;;;;;20.90;3.10;;;;;;;21.39;64.60;101470.22;5029733;28;20096;-73
2023/09/28 03:14:44;;;;;;;19.48;3.00;;;;;;;21.63;63.62;101472.31;5028969;28;20036;-73
2023/09/28 03:17:09;;;;;;;18.42;3.13;;;;;;;21.64;64.15;101474.06;5029729;28;20056;-73
2023/09/28 03:19:38;;;;;;;21.70;3.40;;;;;;;21.68;64.17;101474.84;5028970;28;20483;-72
2023/09/28 03:22:09;;;;;;;22.33;3.35;;;;;;;21.27;66.08;101474.00;5028077;28;20077;-73
2023/09/28 03:24:37;;;;;;;23.27;3.00;;;;;;;21.48;65.37;101485.03;5029028;28;20043;-73
2023/09/28 03:27:03;;;;;;;28.20;3.25;;;;;;;21.39;66.18;101483.47;5029945;28;20045;-73
2023/09/28 03:29:28;;;;;;;16.85;3.13;;;;;;;21.57;65.30;101479.53;5029163;28;20120;-73
2023/09/28 03:31:54;;;;;;;22.83;3.38;;;;;;;21.58;65.71;101482.16;5029689;28;20034;-73
2023/09/28 03:34:22;;;;;;;24.77;3.75;;;;;;;21.66;65.21;101485.50;5029784;28;20034;-73
2023/09/28 03:36:47;;;;;;;23.80;3.45;;;;;;;21.93;64.42;101483.13;5029823;28;20040;-73
2023/09/28 03:39:16;;;;;;;22.05;3.25;;;;;;;21.71;64.87;101472.16;5030274;28;20033;-73
2023/09/28 03:41:41;;;;;;;26.63;3.53;;;;;;;21.89;64.08;101469.06;5028698;28;20096;-73
2023/09/28 03:44:07;;;;;;;19.52;3.70;;;;;;;22.02;63.88;101469.66;5033305;28;20033;-73
2023/09/28 03:46:35;;;;;;;26.30;4.05;;;;;;;21.65;65.08;101480.25;5045669;28;20045;-72
2023/09/28 03:49:07;;;;;;;23.67;3.70;;;;;;;21.65;65.46;101486.41;5046650;28;20030;-73
2023/09/28 03:51:32;;;;;;;26.70;3.63;;;;;;;21.77;64.58;101491.44;5038240;28;20128;-73
2023/09/28 03:53:58;;;;;;;24.45;3.40;;;;;;;21.94;63.47;101498.16;5029269;28;20120;-73
2023/09/28 03:56:23;;;;;;;21.58;3.60;;;;;;;21.94;63.27;101501.69;5030570;28;20021;-74
2023/09/28 03:58:51;;;;;;;28.52;3.67;;;;;;;21.77;64.06;101499.41;5032784;28;20044;-72
2023/09/28 04:01:17;;;;;;;26.30;3.60;;;;;;;21.74;63.82;101496.81;5032627;28;20073;-73
2023/09/28 04:03:42;;;;;;;18.92;3.22;;;;;;;21.65;64.54;101499.66;5032450;28;20087;-73
2023/09/28 04:06:13;;;;;;;29.63;3.72;;;;;;;21.60;64.31;101506.88;5032907;28;20037;-73
2023/09/28 04:08:39;;;;;;;22.83;3.60;;;;;;;21.54;65.18;101504.34;5032279;28;20041;-72
2023/09/28 04:11:07;;;;;;;25.83;3.20;;;;;;;21.53;65.22;101496.44;5032636;28;20042;-73
2023/09/28 04:13:38;;;;;;;26.48;3.95;;;;;;;21.66;64.53;101508.50;5031954;28;20487;-73
2023/09/28 04:16:10;;;;;;;25.08;3.53;;;;;;;21.63;65.25;101524.50;5032655;28;20116;-73
2023/09/28 04:18:41;;;;;;;26.15;3.40;;;;;;;21.68;65.00;101522.63;5032114;28;20037;-72
2023/09/28 04:21:06;;;;;;;27.45;3.60;;;;;;;21.62;64.91;101526.28;5032196;28;20037;-73
2023/09/28 04:23:38;;;;;;;23.83;3.72;;;;;;;21.31;65.92;101518.09;5031750;28;20412;-73
2023/09/28 04:26:06;;;;;;;26.08;3.92;;;;;;;21.47;65.30;101512.50;5032530;28;20037;-73
2023/09/28 04:28:38;;;;;;;24.23;3.85;;;;;;;21.72;64.40;101522.50;5031825;28;20038;-73
2023/09/28 04:31:03;;;;;;;23.48;4.05;;;;;;;21.80;64.05;101532.97;5032110;28;20041;-73
2023/09/28 04:33:28;;;;;;;24.33;3.80;;;;;;;21.55;64.74;101537.06;5031857;28;20336;-73
2023/09/28 04:35:56;;;;;;;27.67;3.80;;;;;;;21.48;64.55;101551.34;5032461;28;20060;-72
2023/09/28 04:38:22;;;;;;;26.00;3.63;;;;;;;21.91;63.40;101551.31;5031877;28;20037;-73
2023/09/28 04:40:47;;;;;;;24.42;3.88;;;;;;;21.69;63.83;101541.19;5031858;28;20033;-72
2023/09/28 04:43:22;;;;;;;27.65;3.63;;;;;;;21.70;63.79;101542.06;5031971;28;20128;-72
2023/09/28 04:45:47;;;;;;;20.00;3.40;;;;;;;21.80;62.87;101541.81;5031761;28;20039;-72
2023/09/28 04:48:12;;;;;;;26.13;3.70;;;;;;;21.69;63.34;101537.66;5032349;28;20120;-73
2023/09/28 04:50:38;;;;;;;31.45;3.75;;;;;;;21.66;64.09;101543.00;5031304;28;20037;-73
2023/09/28 04:53:09;;;;;;;22.52;4.10;;;;;;;21.43;65.38;101539.06;5031799;28;20461;-72
2023/09/28 04:55:34;;;;;;;23.83;3.60;;;;;;;21.53;65.17;101538.91;5031469;28;20046;-73
2023/09/28 04:58:00;;;;;;;24.60;3.65;;;;;;;21.50;65.13;101547.78;5031731;28;20025;-73
2023/09/28 05:00:28;;;;;;;23.70;3.88;;;;;;;21.47;65.07;101539.03;5031269;28;20037;-73
2023/09/28 05:02:53;;;;;;;22.15;3.50;;;;;;;21.40;65.46;101551.53;5030390;28;20435;-71
2023/09/28 05:05:19;;;;;;;20.85;3.47;;;;;;;21.34;66.23;101557.84;5032119;28;20064;-73
2023/09/28 05:07:44;;;;;;;18.77;3.15;;;;;;;21.31;66.62;101567.63;5030082;28;20124;-74
2023/09/28 05:10:10;;;;;;;17.88;3.40;;;;;;;21.44;65.82;101562.03;5031688;28;20493;-74
2023/09/28 05:12:41;;;;;;;23.80;3.40;;;;;;;21.31;66.17;101560.53;5030600;28;20064;-74
2023/09/28 05:15:10;;;;;;;22.33;3.10;;;;;;;21.31;65.72;101557.88;5030111;28;20048;-73
2023/09/28 05:17:35;;;;;;;18.02;3.22;;;;;;;21.25;65.50;101552.72;5031405;28;20037;-73
2023/09/28 05:20:04;;;;;;;22.92;3.83;;;;;;;21.00;66.84;101568.19;5031154;28;20044;-74
2023/09/28 05:22:29;;;;;;;20.98;3.80;;;;;;;21.12;66.49;101563.53;5030630;28;20089;-74
2023/09/28 05:24:54;;;;;;;20.40;3.25;;;;;;;20.95;66.69;101558.56;5031107;28;20116;-72
2023/09/28 05:27:22;;;;;;;18.60;3.20;;;;;;;21.06;65.88;101565.41;5031598;28;20071;-73
2023/09/28 05:29:51;;;;;;;19.00;3.28;;;;;;;20.98;66.02;101563.81;5043104;28;20029;-73
2023/09/28 05:32:19;;;;;;;21.50;3.38;;;;;;;20.87;66.88;101576.38;5049539;28;20033;-73
2023/09/28 05:34:46;;;;;;;19.63;3.40;;;;;;;21.01;66.07;101580.53;5046409;28;20033;-74
2023/09/28 05:37:17;;;;;;;18.65;3.40;;;;;;;20.67;67.60;101586.47;5033569;28;20053;-73
2023/09/28 05:39:43;;;;;;;16.20;3.20;;;;;;;20.79;67.02;101591.56;5029859;28;20491;-73
2023/09/28 05:42:11;;;;;;;20.25;3.65;;;;;;;20.88;66.45;101592.25;5032880;28;20030;-74
2023/09/28 05:44:36;;;;;;;24.25;3.50;;;;;;;20.80;66.87;101596.81;5031317;28;20403;-73
2023/09/28 05:47:01;;;;;;;19.20;2.95;;;;;;;20.82;66.82;101581.75;5031099;28;20109;-73
2023/09/28 05:49:27;;;;;;;20.73;3.30;;;;;;;20.86;66.78;101593.22;5030721;28;20048;-73
2023/09/28 05:51:52;;;;;;;15.70;2.88;;;;;;;20.83;67.10;101594.13;5031710;28;20080;-73
2023/09/28 05:54:21;;;;;;;21.98;3.55;;;;;;;20.65;67.16;101587.34;5031870;28;20021;-75
2023/09/28 05:56:46;;;;;;;18.65;3.03;;;;;;;20.95;66.33;101582.41;5031144;28;20034;-75
2023/09/28 05:59:18;;;;;;;20.17;2.95;;;;;;;20.96;66.40;101578.88;5032339;28;20037;-73
2023/09/28 06:01:49;;;;;;;21.67;2.97;;;;;;;20.94;66.02;101586.84;5034967;28;20538;-73
2023/09/28 06:04:21;;;;;;;17.75;3.30;;;;;;;20.92;66.51;101596.59;5033854;28;20394;-73
2023/09/28 06:06:47;;;;;;;21.35;3.08;;;;;;;21.18;65.37;101598.81;5033557;28;20040;-73
2023/09/28 06:09:12;;;;;;;21.95;3.20;;;;;;;21.38;64.63;101614.34;5031169;28;20371;-72
2023/09/28 06:11:45;;;;;;;17.83;3.10;;;;;;;21.48;64.53;101615.03;5029959;28;20038;-73
2023/09/28 06:14:13;;;;;;;20.42;3.35;;;;;;;21.43;64.26;101608.03;5029951;28;20038;-73
2023/09/28 06:16:53;;;;;;;23.90;3.10;;;;;;;21.14;65.33;101612.13;5030547;28;20038;-73
2023/09/28 06:19:19;;;;;;;19.95;2.95;;;;;;;21.34;64.72;101604.72;5030548;28;20029;-73
2023/09/28 06:21:45;;;;;;;21.85;3.45;;;;;;;21.02;65.60;101611.44;5030219;28;20091;-73
2023/09/28 06:24:11;;;;;;;21.35;3.28;;;;;;;21.24;64.73;101613.72;5030947;28;20045;-73
2023/09/28 06:26:37;;;;;;;17.70;3.28;;;;;;;21.45;64.22;101619.50;5030147;28;20044;-73
2023/09/28 06:29:03;;;;;;;18.35;3.60;;;;;;;21.59;63.83;101621.88;5030329;28;20041;-72
2023/09/28 06:31:28;;;;;;;21.45;3.50;;;;;;;21.60;63.76;101630.69;5029479;28;20037;-74
2023/09/28 06:33:53;;;;;;;19.75;3.47;;;;;;;21.42;64.23;101624.88;5030092;28;20040;-72
2023/09/28 06:36:25;;;;;;;18.73;3.35;;;;;;;21.37;64.41;101637.34;5030045;28;20029;-71
2023/09/28 06:38:51;;;;;;;24.88;3.83;;;;;;;21.18;64.63;101656.28;5029853;28;20033;-72
2023/09/28 06:41:17;;;;;;;23.00;3.60;;;;;;;21.50;64.11;101659.22;5029615;28;20684;-72
2023/09/28 06:43:48;;;;;;;18.95;3.35;;;;;;;21.60;63.33;101666.06;5033618;28;20187;-73
2023/09/28 06:46:17;;;;;;;18.38;3.67;;;;;;;21.75;62.89;101655.16;5035025;28;20036;-73
2023/09/28 06:48:51;;;;;;;26.38;4.22;;;;;;;21.29;64.43;101657.81;5030318;28;20052;-72
2023/09/28 06:51:21;;;;;;;23.45;3.50;;;;;;;21.63;63.90;101647.47;5030060;28;20037;-73
2023/09/28 06:53:47;;;;;;;21.75;3.65;;;;;;;21.77;63.67;101645.38;5030352;28;20037;-74
2023/09/28 06:56:12;;;;;;;22.10;3.80;;;;;;;21.77;63.51;101653.34;5030747;28;20394;-72
2023/09/28 06:58:41;;;;;;;16.73;3.60;;;;;;;21.93;63.05;101643.28;5029051;28;20061;-73
2023/09/28 07:01:10;;;;;;;22.58;3.65;;;;;;;22.04;62.67;101643.09;5029804;28;20124;-72
2023/09/28 07:03:38;;;;;;;22.05;3.88;;;;;;;22.14;62.06;101644.66;5029630;28;20041;-72
2023/09/28 07:06:05;;;;;;;24.70;3.83;;;;;;;21.90;62.66;101642.47;5029967;28;20040;-71
2023/09/28 07:08:30;;;;;;;25.98;4.00;;;;;;;21.74;63.62;101644.56;5026794;28;20033;-73
2023/09/28 07:11:07;;;;;;;22.83;3.72;;;;;;;21.92;62.72;101643.31;5029318;28;20041;-73
2023/09/28 07:13:34;;;;;;;21.85;4.20;;;;;;;22.23;61.69;101655.06;5027357;28;20124;-73
2023/09/28 07:15:59;;;;;;;29.52;3.88;;;;;;;22.04;62.35;101670.53;5029801;28;20048;-73
2023/09/28 07:18:27;;;;;;;20.33;3.72;;;;;;;22.08;62.37;101672.19;5028916;28;20152;-73
2023/09/28 07:21:02;;;;;;;18.35;3.28;;;;;;;22.12;62.00;101673.91;5029285;28;20168;-73
2023/09/28 07:23:28;;;;;;;24.17;3.90;;;;;;;22.13;62.40;101686.28;5031370;28;20060;-73
2023/09/28 07:26:24;;;;;;;25.05;3.78;;;;;;;22.21;62.27;101686.09;5029054;28;20037;-72
2023/09/28 07:28:51;;;;;;;27.58;3.83;;;;;;;22.20;61.87;101690.53;5029355;28;20030;-73
2023/09/28 07:31:26;;;;;;;28.27;3.58;;;;;;;22.31;61.36;101687.66;5030983;28;20026;-72
2023/09/28 07:33:51;;;;;;;21.90;3.58;;;;;;;22.48;61.20;101696.09;5032689;28;20041;-72
2023/09/28 07:36:17;;;;;;;26.25;4.07;;;;;;;22.46;60.97;101697.03;5033228;28;20029;-72
2023/09/28 07:38:51;;;;;;;23.67;3.90;;;;;;;22.35;61.55;101699.06;5033022;28;20041;-73
2023/09/28 07:41:23;;;;;;;25.17;3.45;;;;;;;22.26;62.10;101701.00;5033229;28;20038;-72
2023/09/28 07:43:49;;;;;;;21.02;3.55;;;;;;;22.38;61.07;101699.91;5032991;28;20390;-73
2023/09/28 07:46:14;;;;;;;20.15;3.33;;;;;;;22.80;60.01;101706.03;5033455;28;20037;-72
2023/09/28 07:48:42;;;;;;;23.73;3.63;;;;;;;22.55;61.31;101705.69;5031749;28;20553;-73
2023/09/28 07:51:11;;;;;;;26.15;4.38;;;;;;;21.84;62.91;101720.44;5031882;28;20034;-73
2023/09/28 07:53:42;;;;;;;22.50;3.72;;;;;;;22.02;63.04;101729.88;5032414;28;20037;-72
2023/09/28 07:56:09;;;;;;;23.45;3.95;;;;;;;21.97;63.04;101718.47;5033197;28;20036;-72
2023/09/28 07:58:37;;;;;;;18.80;2.92;;;;;;;22.35;62.00;101709.69;5032120;28;20132;-72
2023/09/28 08:01:03;;;;;;;20.83;3.55;;;;;;;22.55;61.22;101704.81;5033247;28;20037;-73
2023/09/28 08:03:29;;;;;;;22.52;3.70;;;;;;;22.74;60.45;101715.94;5032556;28;20029;-76
2023/09/28 08:05:54;;;;;;;21.67;3.60;;;;;;;22.80;60.44;101726.44;5033359;28;20095;-73
2023/09/28 08:08:27;;;;;;;21.20;3.72;;;;;;;22.75;60.46;101726.50;5033448;28;20029;-73
2023/09/28 08:10:53;;;;;;;21.47;3.20;;;;;;;23.04;59.74;101721.38;5033126;28;20041;-72
2023/09/28 08:13:21;;;;;;;19.92;3.45;;;;;;;22.94;58.82;101721.63;5032996;28;20284;-73
2023/09/28 08:15:46;;;;;;;20.83;3.55;;;;;;;23.16;58.71;101740.63;5033325;28;20037;-73
2023/09/28 08:18:13;;;;;;;20.98;3.88;;;;;;;22.97;59.28;101740.19;5033656;28;20083;-72
2023/09/28 08:20:38;;;;;;;23.42;3.58;;;;;;;23.15;58.88;101736.19;5036955;28;20061;-76
2023/09/28 08:23:11;;;;;;;22.80;3.85;;;;;;;23.26;58.58;101740.34;5038358;28;20109;-72
2023/09/28 08:25:39;;;;;;;22.33;3.30;;;;;;;23.23;59.09;101739.56;5017297;28;20491;-74
2023/09/28 08:28:04;;;;;;;22.02;3.45;;;;;;;23.58;58.19;101736.00;5027256;28;20643;-72
2023/09/28 08:30:30;;;;;;;23.00;3.55;;;;;;;23.77;57.96;101734.59;5032754;28;20054;-72
2023/09/28 08:32:59;;;;;;;19.00;3.53;;;;;;;24.01;56.71;101733.03;5033373;28;20057;-71
2023/09/28 08:35:24;;;;;;;21.30;3.60;;;;;;;24.22;55.29;101737.75;5032467;28;20033;-72
2023/09/28 08:37:50;;;;;;;16.52;3.05;;;;;;;24.26;55.59;101734.09;5033370;28;20091;-72
2023/09/28 08:40:15;;;;;;;23.98;3.60;;;;;;;24.14;55.08;101737.09;5033194;28;20099;-72
2023/09/28 08:42:45;;;;;;;20.80;3.70;;;;;;;24.09;55.84;101739.03;5031907;28;20044;-72
2023/09/28 08:45:16;;;;;;;20.27;3.65;;;;;;;23.90;56.36;101749.31;5033069;28;20055;-72
2023/09/28 08:47:48;;;;;;;25.77;4.00;;;;;;;23.59;57.21;101759.94;5033519;28;20079;-74
2023/09/28 08:50:25;;;;;;;27.48;4.70;;;;;;;23.57;58.60;101753.75;5033504;28;20037;-72
2023/09/28 08:52:54;;;;;;;23.98;3.53;;;;;;;23.85;57.09;101762.75;5035877;28;20057;-71
2023/09/28 08:55:27;;;;;;;24.50;4.07;;;;;;;24.09;55.98;101771.00;5044383;28;20038;-72
2023/09/28 08:57:54;;;;;;;22.33;3.75;;;;;;;23.93;56.25;101783.84;5045119;28;20030;-71
2023/09/28 09:00:24;;;;;;;23.63;3.70;;;;;;;23.67;57.33;101778.34;5043308;28;20064;-73
2023/09/28 09:02:58;;;;;;;19.25;3.80;;;;;;;23.27;58.05;101774.00;5035056;28;20113;-71
2023/09/28 09:05:29;;;;;;;20.23;3.50;;;;;;;23.13;59.00;101772.59;5033703;28;20120;-73
2023/09/28 09:07:55;;;;;;;23.63;3.75;;;;;;;22.87;59.89;101782.06;5032235;28;20029;-71
2023/09/28 09:10:27;;;;;;;19.95;4.10;;;;;;;22.70;60.64;101784.19;5031359;28;20029;-71
2023/09/28 09:12:55;;;;;;;23.55;4.00;;;;;;;23.05;59.54;101784.28;5031385;28;20625;-71
2023/09/28 09:15:20;;;;;;;22.88;4.28;;;;;;;23.15;59.08;101771.66;5032070;28;20063;-71
2023/09/28 09:17:48;;;;;;;22.75;3.70;;;;;;;23.04;59.89;101763.06;5031256;28;20479;-73
2023/09/28 09:20:13;;;;;;;20.55;3.42;;;;;;;23.08;58.84;101763.84;5030080;28;20116;-72
2023/09/28 09:22:39;;;;;;;28.85;3.97;;;;;;;23.16;59.06;101761.91;5030487;28;20571;-72
2023/09/28 09:25:10;;;;;;;27.63;3.88;;;;;;;23.45;58.45;101780.66;5031673;28;20497;-72
2023/09/28 09:27:48;;;;;;;23.17;3.78;;;;;;;23.55;58.51;101781.31;5031028;28;20049;-70
2023/09/28 09:30:20;;;;;;;18.38;3.50;;;;;;;23.30;58.86;101783.69;5031072;28;20113;-70
2023/09/28 09:32:49;;;;;;;19.38;3.78;;;;;;;23.76;57.34;101771.00;5030635;28;20037;-70
2023/09/28 09:35:15;;;;;;;22.58;4.03;;;;;;;23.69;57.17;101774.72;5031583;28;20033;-73
2023/09/28 09:37:43;;;;;;;23.83;3.95;;;;;;;22.80;59.18;101768.97;5030964;28;20119;-72
2023/09/28 09:40:13;;;;;;;20.25;3.60;;;;;;;23.62;58.13;101773.13;5029601;28;20033;-71
2023/09/28 09:42:45;;;;;;;20.40;3.70;;;;;;;24.00;56.01;101758.78;5030581;28;20037;-73
2023/09/28 09:45:18;;;;;;;28.98;3.80;;;;;;;24.04;54.63;101762.22;5031455;28;20061;-72
2023/09/28 09:47:49;;;;;;;18.10;3.45;;;;;;;24.11;55.31;101755.81;5025253;28;20115;-70
2023/09/28 09:50:16;;;;;;;22.85;3.80;;;;;;;23.65;57.42;101762.44;5031171;28;20197;-70
2023/09/28 09:52:47;;;;;;;20.33;3.90;;;;;;;24.08;56.18;101756.78;5030084;28;20044;-72
2023/09/28 09:55:19;;;;;;;28.10;4.55;;;;;;;24.44;54.83;101760.19;5030323;28;20048;-70
2023/09/28 09:57:46;;;;;;;25.90;3.63;;;;;;;24.24;55.60;101749.25;5030161;28;20029;-71
2023/09/28 10:00:23;;;;;;;21.95;3.60;;;;;;;24.73;53.68;101756.63;5030461;28;20470;-71
2023/09/28 10:02:55;;;;;;;18.50;3.72;;;;;;;25.07;53.11;101760.94;5030153;28;20037;-71
2023/09/28 10:05:23;;;;;;;21.23;3.75;;;;;;;24.91;52.53;101773.88;5030755;28;20540;-71
2023/09/28 10:07:49;;;;;;;18.75;3.40;;;;;;;24.97;52.17;101768.34;5029979;28;20037;-71
2023/09/28 10:10:15;;;;;;;21.88;3.40;;;;;;;24.94;51.91;101772.00;5030612;28;20076;-71
2023/09/28 10:12:48;;;;;;;18.85;3.50;;;;;;;24.84;52.88;101780.28;5030391;28;20098;-71
2023/09/28 10:15:15;;;;;;;19.75;3.35;;;;;;;24.54;53.22;101777.66;5030779;28;20060;-71
2023/09/28 10:17:49;;;;;;;23.48;4.07;;;;;;;24.53;54.39;101781.22;5030590;28;20121;-71
2023/09/28 10:20:16;;;;;;;19.75;3.47;;;;;;;24.52;53.53;101786.59;5017230;28;20049;-70
2023/09/28 10:22:45;;;;;;;19.25;3.25;;;;;;;24.59;53.50;101786.38;5029650;28;20038;-71
2023/09/28 10:25:16;;;;;;;20.42;3.65;;;;;;;24.33;54.89;101780.97;5030721;28;20399;-70
2023/09/28 10:27:45;;;;;;;20.70;3.20;;;;;;;24.41;54.50;101776.28;5028591;28;20034;-71
2023/09/28 10:30:21;;;;;;;19.05;3.35;;;;;;;24.78;53.69;101770.69;5030554;28;20064;-70
2023/09/28 10:32:50;;;;;;;22.25;3.70;;;;;;;24.47;55.00;101780.53;5029806;28;20052;-71
2023/09/28 10:35:19;;;;;;;21.27;3.25;;;;;;;24.82;53.56;101782.16;5030704;28;20037;-71
2023/09/28 10:38:20;;;;;;;17.45;3.22;;;;;;;24.48;55.16;101796.50;5033025;28;20324;-71
2023/09/28 10:40:58;;;;;;;15.73;3.08;;;;;;;24.39;55.67;101791.47;5041422;28;20065;-71
2023/09/28 10:43:40;;;;;;;21.40;3.85;;;;;;;24.67;54.26;101794.16;5037838;28;20083;-71
2023/09/28 10:46:15;;;;;;;17.40;3.50;;;;;;;24.73;53.85;101801.09;5029602;28;20033;-72
2023/09/28 10:48:44;;;;;;;22.10;3.58;;;;;;;24.89;53.38;101792.59;5029137;28;20045;-70
2023/09/28 10:51:21;;;;;;;15.50;3.17;;;;;;;24.77;53.37;101800.06;5028008;28;20064;-71
2023/09/28 10:53:46;;;;;;;17.33;3.20;;;;;;;24.61;54.13;101797.00;5029317;28;20037;-72
2023/09/28 10:56:12;;;;;;;22.40;3.95;;;;;;;24.70;53.06;101788.75;5029488;28;20040;-71
2023/09/28 10:58:41;;;;;;;19.52;3.70;;;;;;;24.43;55.53;101803.75;5029425;28;20037;-71
2023/09/28 11:01:18;;;;;;;19.30;3.58;;;;;;;24.67;54.42;101794.16;5029038;28;20132;-71
2023/09/28 11:03:44;;;;;;;17.13;3.25;;;;;;;24.27;54.30;101807.81;5029687;28;20037;-71
2023/09/28 11:06:12;;;;;;;20.95;3.17;;;;;;;24.21;55.08;101824.81;5033143;28;20463;-71
2023/09/28 11:08:42;;;;;;;19.25;3.67;;;;;;;24.51;54.45;101830.22;5034575;28;20095;-72
2023/09/28 11:11:07;;;;;;;20.63;3.55;;;;;;;24.44;55.83;101824.19;5034014;28;20034;-72
2023/09/28 11:13:39;;;;;;;22.30;3.58;;;;;;;24.71;53.72;101826.94;5033727;28;20037;-73
2023/09/28 11:16:11;;;;;;;21.30;3.58;;;;;;;24.36;54.83;101822.63;5031765;28;20036;-72
2023/09/28 11:18:37;;;;;;;23.00;3.65;;;;;;;24.44;55.34;101824.19;5033350;28;20631;-73
2023/09/28 11:21:09;;;;;;;21.35;3.40;;;;;;;24.73;53.59;101823.31;5032551;28;20046;-73
2023/09/28 11:23:40;;;;;;;19.77;3.95;;;;;;;24.77;52.27;101824.06;5033209;28;20037;-72
2023/09/28 11:26:13;;;;;;;23.85;3.60;;;;;;;24.33;54.19;101834.28;5033259;28;20037;-72